Time;durP1;ratioP1;P1;durP2;ratioP2;P2;SDS_P1;SDS_P2;PMS_P1;PMS_P2;Temp;Humidity;BMP_temperature;BMP_pressure;BME280_temperature;BME280_humidity;BME280_pressure;Samples;Min_cycle;Max_cycle;Signal;HPM_P1;HPM_P2
2023/04/01 00:02:24;;;;;;;1.63;0.68;;;17.40;1.00;;;;;;4973263;28;20039;-35
2023/04/01 00:04:51;;;;;;;1.45;1.20;;;17.40;1.00;;;;;;4973473;28;20042;-35
2023/04/01 00:07:17;;;;;;;1.38;0.80;;;17.30;1.00;;;;;;4973744;28;20057;-35
2023/04/01 00:09:44;;;;;;;1.98;0.52;;;17.30;1.00;;;;;;4973587;28;20043;-35
2023/04/01 00:12:11;;;;;;;1.00;0.70;;;17.30;1.00;;;;;;4973454;28;20046;-35
2023/04/01 00:14:39;;;;;;;1.60;0.70;;;17.30;1.00;;;;;;4972952;28;20050;-35
2023/04/01 00:17:06;;;;;;;3.13;0.95;;;17.30;1.00;;;;;;4974009;28;20039;-35
2023/04/01 00:19:33;;;;;;;1.60;0.60;;;17.30;1.00;;;;;;4973489;28;20549;-35
2023/04/01 00:22:00;;;;;;;5.05;0.70;;;17.30;1.00;;;;;;4973402;28;20035;-35
2023/04/01 00:24:27;;;;;;;2.08;0.80;;;17.30;1.00;;;;;;4972776;28;20043;-35
2023/04/01 00:26:54;;;;;;;1.45;0.75;;;17.30;1.00;;;;;;4973355;28;20046;-35
2023/04/01 00:29:21;;;;;;;2.60;1.02;;;17.20;1.00;;;;;;4956059;28;20054;-35
2023/04/01 00:31:48;;;;;;;1.85;1.02;;;17.20;1.00;;;;;;4973376;28;20118;-35
2023/04/01 00:34:15;;;;;;;4.05;1.02;;;17.20;1.00;;;;;;4955162;28;20090;-35
2023/04/01 00:36:42;;;;;;;1.67;0.90;;;17.20;1.00;;;;;;4973313;28;20074;-35
2023/04/01 00:39:09;;;;;;;1.80;0.80;;;17.20;1.00;;;;;;4955927;28;20054;-35
2023/04/01 00:41:36;;;;;;;2.15;0.75;;;17.20;1.00;;;;;;4973235;28;20047;-35
2023/04/01 00:44:27;;;;;;;2.17;0.70;;;17.10;1.00;;;;;;4971238;28;20043;-35
2023/04/01 00:46:54;;;;;;;1.63;0.70;;;17.10;1.00;;;;;;4971932;28;20051;-35
2023/04/01 00:49:26;;;;;;;1.20;0.70;;;17.10;1.00;;;;;;4973264;28;20101;-35
2023/04/01 00:51:56;;;;;;;0.80;0.50;;;17.10;1.00;;;;;;4972952;28;20066;-35
2023/04/01 00:54:25;;;;;;;2.67;0.85;;;17.10;1.00;;;;;;4972300;28;20073;-35
2023/04/01 00:56:57;;;;;;;1.38;0.65;;;17.10;1.00;;;;;;4955752;28;20411;-35
2023/04/01 00:59:42;;;;;;;2.50;0.77;;;17.10;1.00;;;;;;4971824;28;20046;-35
2023/04/01 01:02:11;;;;;;;3.67;1.00;;;17.00;1.00;;;;;;4955337;28;20051;-35
2023/04/01 01:04:38;;;;;;;2.65;0.65;;;17.00;1.00;;;;;;4974761;28;20059;-35
2023/04/01 01:07:33;;;;;;;1.05;0.60;;;17.10;1.00;;;;;;4975733;28;20467;-35
2023/04/01 01:10:22;;;;;;;1.77;0.65;;;17.10;1.00;;;;;;4977278;28;20118;-35
2023/04/01 01:13:14;;;;;;;1.20;0.80;;;17.00;1.00;;;;;;4958966;28;20054;-35
2023/04/01 01:16:02;;;;;;;1.48;0.63;;;17.00;1.00;;;;;;4976812;28;20042;-35
2023/04/01 01:18:44;;;;;;;1.00;0.50;;;17.00;1.00;;;;;;4975691;28;20050;-35
2023/04/01 01:21:19;;;;;;;2.95;0.63;;;17.00;1.00;;;;;;4959337;28;20046;-35
2023/04/01 01:23:56;;;;;;;2.00;0.88;;;17.00;1.00;;;;;;4976065;28;20039;-35
2023/04/01 01:26:42;;;;;;;3.33;0.90;;;16.90;1.00;;;;;;4976719;28;20031;-35
2023/04/01 01:29:42;;;;;;;1.20;0.50;;;17.00;1.00;;;;;;4959141;28;20046;-35
2023/04/01 01:32:48;;;;;;;1.90;0.50;;;16.90;1.00;;;;;;4976267;28;20069;-35
2023/04/01 01:35:33;;;;;;;1.10;0.65;;;16.90;1.00;;;;;;4976413;28;20034;-35
2023/04/01 01:38:11;;;;;;;0.90;0.52;;;16.90;1.00;;;;;;4975224;28;20047;-35
2023/04/01 01:40:44;;;;;;;1.20;0.60;;;16.90;1.00;;;;;;4959089;28;20042;-35
2023/04/01 01:43:16;;;;;;;1.52;0.80;;;16.90;1.00;;;;;;4958282;28;20051;-35
2023/04/01 01:45:48;;;;;;;1.10;0.60;;;16.90;1.00;;;;;;4976245;28;20058;-35
2023/04/01 01:48:16;;;;;;;2.95;0.50;;;16.90;1.00;;;;;;4976433;28;20046;-35
2023/04/01 01:50:45;;;;;;;2.28;0.60;;;16.90;1.00;;;;;;4959146;28;20054;-35
2023/04/01 01:53:14;;;;;;;2.90;0.73;;;16.90;1.00;;;;;;4958181;28;20497;-35
2023/04/01 01:55:46;;;;;;;1.73;0.50;;;16.80;1.00;;;;;;4974865;28;20465;-35
2023/04/01 01:58:40;;;;;;;2.05;0.50;;;16.80;1.00;;;;;;4958689;28;20608;-35
2023/04/01 02:01:13;;;;;;;1.10;0.45;;;16.80;1.00;;;;;;4958603;28;20499;-36
2023/04/01 02:03:43;;;;;;;1.30;0.68;;;16.80;1.00;;;;;;4957889;28;20065;-35
2023/04/01 02:06:15;;;;;;;2.33;0.57;;;16.80;1.00;;;;;;4958540;28;20098;-35
2023/04/01 02:08:44;;;;;;;2.25;0.70;;;16.80;1.00;;;;;;4958729;28;20054;-35
2023/04/01 02:11:14;;;;;;;1.17;0.60;;;16.80;1.00;;;;;;4974461;28;20055;-35
2023/04/01 02:13:51;;;;;;;1.13;0.70;;;16.80;1.00;;;;;;4957746;28;20507;-35
2023/04/01 02:16:22;;;;;;;1.02;0.75;;;16.90;1.00;;;;;;4957544;28;20082;-35
2023/04/01 02:18:54;;;;;;;2.03;0.60;;;16.90;1.00;;;;;;4975704;28;20039;-35
2023/04/01 02:21:24;;;;;;;0.60;0.32;;;17.00;1.00;;;;;;4975496;28;20443;-35
2023/04/01 02:23:53;;;;;;;1.00;0.52;;;17.00;1.00;;;;;;4975049;28;20127;-35
2023/04/01 02:26:21;;;;;;;0.82;0.47;;;17.10;1.00;;;;;;4975576;28;20527;-35
2023/04/01 02:28:50;;;;;;;1.05;0.50;;;17.20;1.00;;;;;;4958187;28;20047;-35
2023/04/01 02:31:18;;;;;;;0.93;0.50;;;17.20;1.00;;;;;;4958143;28;20178;-35
2023/04/01 02:33:46;;;;;;;1.30;0.55;;;17.30;1.00;;;;;;4957267;28;20645;-35
2023/04/01 02:36:15;;;;;;;1.50;0.90;;;17.40;1.00;;;;;;4957994;28;20039;-35
2023/04/01 02:38:44;;;;;;;1.58;0.60;;;17.50;1.00;;;;;;4957935;28;20062;-35
2023/04/01 02:41:11;;;;;;;1.20;0.52;;;17.50;1.00;;;;;;4957824;28;20043;-35
2023/04/01 02:43:38;;;;;;;2.35;0.30;;;17.60;1.00;;;;;;4974463;28;20042;-35
2023/04/01 02:46:05;;;;;;;2.50;0.52;;;17.60;1.00;;;;;;4973933;28;20047;-35
2023/04/01 02:48:32;;;;;;;1.10;0.50;;;17.70;1.00;;;;;;4957693;28;20422;-35
2023/04/01 02:50:59;;;;;;;1.00;0.40;;;17.70;1.00;;;;;;4957688;28;20047;-36
2023/04/01 02:53:25;;;;;;;0.70;0.38;;;17.80;1.00;;;;;;4973559;28;20062;-35
2023/04/01 02:55:52;;;;;;;1.52;0.50;;;17.80;1.00;;;;;;4974910;28;20039;-35
2023/04/01 02:58:19;;;;;;;0.70;0.32;;;17.80;1.00;;;;;;4973810;28;20051;-35
2023/04/01 03:00:46;;;;;;;1.65;0.70;;;17.80;1.00;;;;;;4957194;28;20049;-36
2023/04/01 03:03:13;;;;;;;1.30;0.63;;;17.90;1.00;;;;;;4956671;28;20050;-35
2023/04/01 03:05:40;;;;;;;0.82;0.50;;;17.90;1.00;;;;;;4957500;28;20510;-35
2023/04/01 03:08:07;;;;;;;1.33;0.55;;;17.90;1.00;;;;;;4973564;28;20459;-35
2023/04/01 03:10:34;;;;;;;1.48;0.80;;;17.90;1.00;;;;;;4974606;28;20071;-35
2023/04/01 03:13:03;;;;;;;1.02;0.52;;;17.90;1.00;;;;;;4972644;28;20414;-35
2023/04/01 03:15:29;;;;;;;3.13;0.57;;;17.90;1.00;;;;;;4974505;28;20047;-36
2023/04/01 03:17:57;;;;;;;2.08;0.70;;;17.90;1.00;;;;;;4957138;28;20042;-36
2023/04/01 03:20:24;;;;;;;1.70;0.80;;;17.90;1.00;;;;;;4973278;28;20047;-36
2023/04/01 03:22:50;;;;;;;1.13;0.40;;;17.90;1.00;;;;;;4973710;28;20051;-36
2023/04/01 03:25:18;;;;;;;1.83;0.60;;;17.90;1.00;;;;;;4973201;28;20053;-36
2023/04/01 03:27:45;;;;;;;2.38;0.60;;;17.90;1.00;;;;;;4973458;28;20130;-36
2023/04/01 03:30:12;;;;;;;0.73;0.35;;;17.90;1.00;;;;;;4956934;28;20529;-36
2023/04/01 03:32:47;;;;;;;4.10;0.70;;;17.90;1.00;;;;;;4972408;28;20503;-36
2023/04/01 03:35:14;;;;;;;1.88;0.40;;;17.90;1.00;;;;;;4956834;28;20043;-36
2023/04/01 03:37:41;;;;;;;0.60;0.30;;;17.90;1.00;;;;;;4956834;28;20043;-36
2023/04/01 03:40:09;;;;;;;1.13;0.93;;;17.90;1.00;;;;;;4974245;28;20038;-36
2023/04/01 03:42:36;;;;;;;1.48;0.50;;;17.90;1.00;;;;;;4972397;28;20178;-36
2023/04/01 03:45:04;;;;;;;1.33;0.50;;;17.80;1.00;;;;;;4972848;28;20582;-36
2023/04/01 03:47:31;;;;;;;2.22;0.43;;;17.80;1.00;;;;;;4973966;28;20121;-36
2023/04/01 03:49:58;;;;;;;1.58;0.75;;;17.80;1.00;;;;;;4974217;28;20413;-36
2023/04/01 03:52:25;;;;;;;4.22;0.82;;;17.80;1.00;;;;;;4956574;28;20239;-36
2023/04/01 03:54:52;;;;;;;1.33;1.13;;;17.80;1.00;;;;;;4972135;28;20109;-36
2023/04/01 03:57:19;;;;;;;3.90;0.93;;;17.80;1.00;;;;;;4972554;28;20050;-36
2023/04/01 03:59:46;;;;;;;1.95;0.80;;;17.70;1.00;;;;;;4956518;28;20506;-36
2023/04/01 04:02:12;;;;;;;1.95;0.93;;;17.70;1.00;;;;;;4989657;22;20133;-33
2023/04/01 04:04:40;;;;;;;1.42;0.60;;;17.70;1.00;;;;;;5010910;28;20072;-33
2023/04/01 04:07:08;;;;;;;2.42;0.70;;;17.70;1.00;;;;;;5011548;28;20100;-34
2023/04/01 04:09:55;;;;;;;2.20;1.10;;;17.70;1.00;;;;;;5012403;28;20050;-34
2023/04/01 04:12:21;;;;;;;2.53;0.50;;;17.70;1.00;;;;;;5012212;28;20079;-34
2023/04/01 04:14:48;;;;;;;2.28;0.98;;;17.60;1.00;;;;;;5012221;28;20489;-34
2023/04/01 04:17:16;;;;;;;3.30;1.05;;;17.60;1.00;;;;;;5011318;28;20045;-34
2023/04/01 04:19:43;;;;;;;1.77;0.60;;;17.60;1.00;;;;;;5011253;28;20038;-34
2023/04/01 04:22:11;;;;;;;1.77;0.73;;;17.60;1.00;;;;;;5010825;28;20054;-34
2023/04/01 04:24:38;;;;;;;4.50;0.90;;;17.60;1.00;;;;;;5012032;28;20066;-34
2023/04/01 04:27:08;;;;;;;2.15;0.93;;;17.60;1.00;;;;;;5011288;28;20049;-34
2023/04/01 04:29:41;;;;;;;1.10;0.70;;;17.50;1.00;;;;;;5011281;28;20533;-34
2023/04/01 04:32:08;;;;;;;3.50;1.08;;;17.50;1.00;;;;;;5011068;28;20068;-34
2023/04/01 04:34:36;;;;;;;2.45;1.00;;;17.50;1.00;;;;;;5011825;28;20034;-34
2023/04/01 04:37:04;;;;;;;3.55;1.20;;;17.50;1.00;;;;;;5012327;28;20069;-33
2023/04/01 04:39:34;;;;;;;4.13;1.20;;;17.50;1.00;;;;;;5010709;28;20068;-33
2023/04/01 04:42:02;;;;;;;2.33;0.75;;;17.50;1.00;;;;;;5011059;28;20050;-34
2023/04/01 04:44:29;;;;;;;3.72;1.27;;;17.40;1.00;;;;;;5010178;28;20049;-33
2023/04/01 04:46:56;;;;;;;2.55;0.73;;;17.40;1.00;;;;;;5010887;28;20053;-33
2023/04/01 04:49:25;;;;;;;4.72;1.40;;;17.40;1.00;;;;;;5010806;28;20050;-33
2023/04/01 04:51:52;;;;;;;3.33;1.08;;;17.40;1.00;;;;;;5010963;28;20060;-34
2023/04/01 04:54:22;;;;;;;4.43;1.63;;;17.40;1.00;;;;;;5010225;28;20053;-33
2023/04/01 04:56:54;;;;;;;3.28;1.05;;;17.40;1.00;;;;;;5010793;28;20514;-33
2023/04/01 04:59:22;;;;;;;4.30;1.50;;;17.40;1.00;;;;;;5010799;28;20052;-33
2023/04/01 05:02:15;;;;;;;3.13;0.98;;;17.30;1.00;;;;;;5010323;28;20052;-33
2023/04/01 05:04:42;;;;;;;2.58;1.17;;;17.30;1.00;;;;;;5011726;28;20050;-33
2023/04/01 05:07:10;;;;;;;4.10;1.00;;;17.30;1.00;;;;;;5010746;28;20092;-34
2023/04/01 05:09:37;;;;;;;3.10;1.48;;;17.30;1.00;;;;;;5010908;28;20046;-33
2023/04/01 05:12:04;;;;;;;3.00;1.27;;;17.30;1.00;;;;;;5010783;28;20041;-33
2023/04/01 05:14:54;;;;;;;5.00;1.55;;;17.30;1.00;;;;;;5010258;28;20080;-33
2023/04/01 05:17:21;;;;;;;4.88;1.85;;;17.20;1.00;;;;;;5010583;28;20054;-33
2023/04/01 05:19:47;;;;;;;2.97;1.60;;;17.20;1.00;;;;;;5010590;28;20524;-33
2023/04/01 05:22:14;;;;;;;3.28;1.40;;;17.20;1.00;;;;;;5010257;28;20042;-34
2023/04/01 05:24:42;;;;;;;4.20;1.63;;;17.20;1.00;;;;;;5010117;28;20520;-33
2023/04/01 05:27:10;;;;;;;4.28;1.35;;;17.20;1.00;;;;;;5010458;28;20041;-33
2023/04/01 05:29:39;;;;;;;9.32;2.58;;;17.20;1.00;;;;;;5010483;28;20146;-33
2023/04/01 05:32:10;;;;;;;4.63;2.10;;;17.10;1.00;;;;;;5010158;28;20056;-33
2023/04/01 05:34:37;;;;;;;4.68;1.80;;;17.10;1.00;;;;;;5011193;28;20069;-33
2023/04/01 05:37:04;;;;;;;3.20;1.77;;;17.10;1.00;;;;;;5002833;28;20408;-33
2023/04/01 05:39:30;;;;;;;5.70;2.30;;;17.10;1.00;;;;;;4999430;28;20053;-34
2023/04/01 05:41:57;;;;;;;6.13;2.05;;;17.10;1.00;;;;;;4997230;28;20054;-33
2023/04/01 05:44:24;;;;;;;6.07;2.38;;;17.10;1.00;;;;;;4997511;28;20056;-33
2023/04/01 05:47:23;;;;;;;4.90;1.95;;;17.10;1.00;;;;;;4968938;28;20643;-33
2023/04/01 05:49:50;;;;;;;3.67;1.90;;;17.00;1.00;;;;;;5002531;28;20045;-33
2023/04/01 05:52:18;;;;;;;5.80;1.90;;;17.00;1.00;;;;;;5013320;28;20136;-33
2023/04/01 05:54:44;;;;;;;3.55;2.03;;;17.00;1.00;;;;;;5014656;28;20030;-33
2023/04/01 05:57:11;;;;;;;8.00;2.42;;;17.00;1.00;;;;;;5013690;28;20070;-33
2023/04/01 05:59:38;;;;;;;5.78;2.00;;;17.00;1.00;;;;;;5013700;28;20061;-33
2023/04/01 06:02:05;;;;;;;4.90;2.08;;;17.00;1.00;;;;;;5013473;28;20497;-33
2023/04/01 06:04:37;;;;;;;6.43;3.08;;;17.00;1.00;;;;;;5012889;28;20469;-33
2023/04/01 06:07:15;;;;;;;5.20;2.05;;;17.00;1.00;;;;;;5013616;28;20049;-33
2023/04/01 06:09:44;;;;;;;3.67;1.95;;;16.90;1.00;;;;;;5013414;28;20112;-33
2023/04/01 06:12:34;;;;;;;4.50;2.25;;;16.90;1.00;;;;;;5013224;28;20045;-33
2023/04/01 06:15:28;;;;;;;4.55;2.30;;;16.90;1.00;;;;;;5013262;28;20391;-33
2023/04/01 06:18:32;;;;;;;3.88;2.10;;;17.00;1.00;;;;;;5013743;28;20041;-33
2023/04/01 06:21:05;;;;;;;3.97;2.08;;;17.00;1.00;;;;;;5012992;28;20038;-34
2023/04/01 06:23:39;;;;;;;;;;;17.10;1.00;;;;;;5012964;28;20042;-33
2023/04/01 06:26:33;;;;;;;4.45;1.75;;;17.10;1.00;;;;;;5013384;28;19921;-33
2023/04/01 06:29:49;;;;;;;5.80;2.00;;;17.20;1.00;;;;;;5013107;28;20050;-33
2023/04/01 06:32:28;;;;;;;6.28;2.25;;;17.30;1.00;;;;;;5013968;28;20417;-33
2023/04/01 06:35:09;;;;;;;4.90;2.25;;;17.30;1.00;;;;;;5012695;28;20046;-33
2023/04/01 06:37:56;;;;;;;3.85;1.73;;;17.40;1.00;;;;;;5012789;28;20050;-33
2023/04/01 06:40:45;;;;;;;5.07;1.98;;;17.50;1.00;;;;;;5013047;28;20449;-33
2023/04/01 06:43:24;;;;;;;3.88;1.83;;;17.60;1.00;;;;;;5012133;28;20042;-33
2023/04/01 06:46:57;;;;;;;5.00;1.73;;;17.70;1.00;;;;;;5013990;28;20038;-34
2023/04/01 06:50:19;;;;;;;3.25;1.33;;;17.70;1.00;;;;;;4970712;28;20141;-34
2023/04/01 06:53:39;;;;;;;4.43;1.48;;;17.80;1.00;;;;;;5010455;28;20073;-33
2023/04/01 06:56:28;;;;;;;4.45;1.90;;;17.80;1.00;;;;;;5014018;28;20523;-33
2023/04/01 06:59:12;;;;;;;4.45;1.50;;;17.90;1.00;;;;;;5012541;28;20045;-34
2023/04/01 07:01:55;;;;;;;5.07;1.50;;;17.90;1.00;;;;;;5012200;28;20142;-34
2023/04/01 07:04:28;;;;;;;3.80;1.85;;;18.00;1.00;;;;;;5011797;28;20052;-33
2023/04/01 07:07:35;;;;;;;2.67;1.73;;;18.00;1.00;;;;;;5012496;28;20050;-33
2023/04/01 07:10:19;;;;;;;4.05;1.83;;;18.00;1.00;;;;;;4985648;28;20054;-33
2023/04/01 07:13:10;;;;;;;2.45;1.30;;;18.00;1.00;;;;;;5012901;28;20073;-33
2023/04/01 07:16:26;;;;;;;4.57;1.48;;;18.00;1.00;;;;;;5010409;28;20062;-33
2023/04/01 07:19:14;;;;;;;5.72;1.58;;;18.00;1.00;;;;;;5005540;28;20054;-34
2023/04/01 07:22:05;;;;;;;4.13;1.40;;;18.00;1.00;;;;;;5012103;28;20153;-34
2023/04/01 07:24:53;;;;;;;5.78;2.13;;;18.00;1.00;;;;;;5012929;28;20104;-34
2023/04/01 07:27:20;;;;;;;3.33;1.75;;;18.00;1.00;;;;;;5012165;28;20046;-33
2023/04/01 07:29:47;;;;;;;3.00;1.17;;;18.00;1.00;;;;;;5012008;28;20445;-34
2023/04/01 07:32:42;;;;;;;4.07;1.67;;;18.00;1.00;;;;;;5011415;28;20417;-33
2023/04/01 07:35:24;;;;;;;4.85;2.00;;;18.00;1.00;;;;;;4987329;28;20065;-33
2023/04/01 07:37:54;;;;;;;3.53;1.70;;;18.00;1.00;;;;;;5011939;28;20050;-33
2023/04/01 07:41:02;;;;;;;4.63;1.88;;;18.00;1.00;;;;;;5011771;28;20057;-34
2023/04/01 07:43:49;;;;;;;2.22;1.42;;;18.00;1.00;;;;;;5010961;28;20042;-34
2023/04/01 07:46:57;;;;;;;3.40;1.60;;;18.00;1.00;;;;;;5011879;28;20501;-33
2023/04/01 07:49:34;;;;;;;4.63;1.55;;;17.90;1.00;;;;;;5011698;28;20045;-33
2023/04/01 07:52:16;;;;;;;4.53;1.85;;;17.90;1.00;;;;;;5011590;28;20052;-34
2023/04/01 07:54:57;;;;;;;2.90;1.35;;;17.90;1.00;;;;;;5010298;28;20513;-33
2023/04/01 07:57:51;;;;;;;3.83;1.45;;;17.90;1.00;;;;;;5012676;28;20034;-33
2023/04/01 08:00:29;;;;;;;3.65;1.45;;;17.90;1.00;;;;;;5011235;28;20046;-34
2023/04/01 08:03:26;;;;;;;4.15;1.73;;;17.90;1.00;;;;;;5010402;28;20046;-34
2023/04/01 08:06:18;;;;;;;5.50;1.42;;;17.80;1.00;;;;;;5011474;28;20088;-34
2023/04/01 08:09:04;;;;;;;2.65;1.17;;;17.80;1.00;;;;;;5011589;28;20042;-33
2023/04/01 08:12:03;;;;;;;2.45;1.40;;;17.80;1.00;;;;;;5012487;28;20041;-34
2023/04/01 08:15:12;;;;;;;4.60;1.92;;;17.80;1.00;;;;;;5012106;28;20068;-33
2023/04/01 08:18:34;;;;;;;2.05;1.20;;;17.80;1.00;;;;;;4997359;28;20053;-34
2023/04/01 08:21:04;;;;;;;5.70;1.60;;;17.70;1.00;;;;;;5011266;28;20053;-33
2023/04/01 08:23:36;;;;;;;3.33;1.25;;;17.70;1.00;;;;;;5010231;28;20057;-33
2023/04/01 08:26:10;;;;;;;4.10;1.48;;;17.70;1.00;;;;;;5011133;28;20049;-34
2023/04/01 08:28:48;;;;;;;2.35;1.23;;;17.70;1.00;;;;;;5011263;28;20045;-34
2023/04/01 08:31:40;;;;;;;6.05;1.88;;;17.70;1.00;;;;;;5011136;28;20049;-34
2023/04/01 08:34:33;;;;;;;3.03;1.60;;;17.60;1.00;;;;;;5011470;28;20053;-33
2023/04/01 08:37:10;;;;;;;2.13;0.93;;;17.60;1.00;;;;;;5010897;28;20073;-34
2023/04/01 08:40:08;;;;;;;3.80;1.30;;;17.60;1.00;;;;;;5010980;28;20049;-34
2023/04/01 08:42:49;;;;;;;3.13;1.45;;;17.60;1.00;;;;;;5010481;28;20056;-34
2023/04/01 08:45:44;;;;;;;2.35;1.38;;;17.50;1.00;;;;;;5011015;28;20042;-34
2023/04/01 08:48:23;;;;;;;3.03;1.50;;;17.50;1.00;;;;;;5010715;28;20042;-33
2023/04/01 08:51:09;;;;;;;3.33;1.20;;;17.50;1.00;;;;;;5010902;28;20144;-34
2023/04/01 08:54:15;;;;;;;2.85;1.33;;;17.50;1.00;;;;;;5010043;28;20046;-33
2023/04/01 08:57:04;;;;;;;;;;;17.50;1.00;;;;;;5012316;28;20073;-34
2023/04/01 08:59:39;;;;;;;4.38;1.50;;;17.50;1.00;;;;;;5027263;28;20001;-34
2023/04/01 09:02:50;;;;;;;4.25;1.52;;;17.40;1.00;;;;;;5010160;28;20046;-34
2023/04/01 09:05:47;;;;;;;4.20;1.73;;;17.40;1.00;;;;;;5010699;28;20084;-34
2023/04/01 09:08:42;;;;;;;1.85;1.08;;;17.40;1.00;;;;;;5010760;28;20050;-34
2023/04/01 09:11:30;;;;;;;3.03;1.63;;;17.40;1.00;;;;;;5010789;28;20052;-34
2023/04/01 09:14:48;;;;;;;3.00;1.58;;;17.40;1.00;;;;;;4998134;28;20062;-35
2023/04/01 09:17:37;;;;;;;3.03;1.40;;;17.40;1.00;;;;;;5010580;28;20532;-34
2023/04/01 09:20:37;;;;;;;3.20;1.50;;;17.30;1.00;;;;;;5010524;28;20046;-34
2023/04/01 09:23:08;;;;;;;5.40;1.75;;;17.30;1.00;;;;;;5009536;28;20053;-34
2023/04/01 09:26:08;;;;;;;1.83;1.45;;;17.30;1.00;;;;;;5012212;28;20046;-34
2023/04/01 09:28:44;;;;;;;4.18;1.80;;;17.30;1.00;;;;;;5014174;28;20053;-34
2023/04/01 09:31:40;;;;;;;4.15;1.52;;;17.30;1.00;;;;;;5015576;28;20042;-34
2023/04/01 09:34:54;;;;;;;4.53;1.45;;;17.30;1.00;;;;;;4954241;29;20051;-35
2023/04/01 09:38:17;;;;;;;4.05;1.45;;;17.30;1.00;;;;;;4954695;29;20051;-35
2023/04/01 09:40:48;;;;;;;4.80;1.50;;;17.20;1.00;;;;;;4942612;28;20445;-35
2023/04/01 09:43:42;;;;;;;4.22;1.48;;;17.20;1.00;;;;;;5013195;28;20513;-34
2023/04/01 09:46:12;;;;;;;3.42;1.25;;;17.20;1.00;;;;;;5015447;28;20042;-34
2023/04/01 09:49:17;;;;;;;4.15;1.42;;;17.20;1.00;;;;;;5015214;28;20125;-34
2023/04/01 09:51:47;;;;;;;3.60;1.38;;;17.20;1.00;;;;;;5013794;28;20042;-34
2023/04/01 09:54:41;;;;;;;4.55;1.48;;;17.20;1.00;;;;;;5013210;28;20470;-35
2023/04/01 09:57:36;;;;;;;3.38;0.93;;;17.20;1.00;;;;;;5013845;28;20137;-34
2023/04/01 10:00:36;;;;;;;5.30;1.33;;;17.10;1.00;;;;;;5013601;28;20480;-34
2023/04/01 10:03:19;;;;;;;4.18;1.88;;;17.10;1.00;;;;;;5012652;28;20049;-34
2023/04/01 10:06:08;;;;;;;5.55;1.52;;;17.10;1.00;;;;;;5013659;28;20042;-34
2023/04/01 10:09:23;;;;;;;4.07;1.45;;;17.10;1.00;;;;;;5013571;28;20497;-34
2023/04/01 10:11:50;;;;;;;2.53;1.13;;;17.10;1.00;;;;;;5013448;28;20073;-34
2023/04/01 10:14:23;;;;;;;3.42;0.80;;;17.10;1.00;;;;;;5012715;28;20091;-35
2023/04/01 10:17:27;;;;;;;2.92;0.95;;;17.10;1.00;;;;;;5013351;28;20508;-34
2023/04/01 10:19:54;;;;;;;;;;;17.10;1.00;;;;;;5015027;28;20042;-35
2023/04/01 10:22:43;;;;;;;3.63;1.38;;;17.10;1.00;;;;;;5012909;28;19922;-34
2023/04/01 10:25:41;;;;;;;3.10;1.73;;;17.00;1.00;;;;;;4997108;28;20069;-34
2023/04/01 10:28:37;;;;;;;;;;;17.00;1.00;;;;;;5013622;28;20056;-34
2023/04/01 10:31:43;;;;;;;3.38;1.10;;;17.00;1.00;;;;;;5014905;28;19927;-35
2023/04/01 10:34:19;;;;;;;3.95;1.17;;;17.00;1.00;;;;;;5012399;28;20100;-34
2023/04/01 10:37:24;;;;;;;3.35;1.42;;;17.00;1.00;;;;;;5012462;28;20057;-34
2023/04/01 10:40:12;;;;;;;4.63;0.90;;;17.00;1.00;;;;;;4974844;28;20050;-34
2023/04/01 10:43:46;;;;;;;3.90;0.93;;;17.00;1.00;;;;;;4989442;28;20041;-34
2023/04/01 10:46:40;;;;;;;3.60;1.05;;;17.00;1.00;;;;;;5013032;28;20050;-34
2023/04/01 10:49:19;;;;;;;3.40;1.00;;;17.00;1.00;;;;;;5012863;28;20048;-34
2023/04/01 10:52:12;;;;;;;7.65;1.92;;;17.00;1.00;;;;;;4997377;28;20052;-34
2023/04/01 10:55:24;;;;;;;3.65;0.73;;;17.00;1.00;;;;;;5013624;28;20121;-34
2023/04/01 10:58:41;;;;;;;3.53;0.98;;;17.00;1.00;;;;;;5013937;28;20180;-34
2023/04/01 11:01:54;;;;;;;3.42;0.80;;;17.00;1.00;;;;;;5013916;28;20041;-35
2023/04/01 11:05:18;;;;;;;5.65;1.48;;;17.00;1.00;;;;;;5013357;28;20050;-35
2023/04/01 11:08:15;;;;;;;3.47;1.08;;;17.00;1.00;;;;;;5012533;28;20052;-34
2023/04/01 11:11:22;;;;;;;3.10;0.80;;;17.00;1.00;;;;;;5012211;28;20107;-34
2023/04/01 11:14:23;;;;;;;4.30;2.55;;;17.00;1.00;;;;;;5011594;28;20045;-34
2023/04/01 11:17:16;;;;;;;3.55;1.35;;;17.00;1.00;;;;;;5012222;28;20080;-34
2023/04/01 11:19:56;;;;;;;3.60;1.23;;;17.00;1.00;;;;;;5012193;28;20042;-34
2023/04/01 11:22:58;;;;;;;4.18;1.38;;;17.00;1.00;;;;;;5011929;28;20092;-35
2023/04/01 11:26:05;;;;;;;6.50;1.00;;;17.00;1.00;;;;;;5012192;28;20046;-35
2023/04/01 11:29:29;;;;;;;3.88;0.98;;;17.00;1.00;;;;;;5013213;28;20042;-35
2023/04/01 11:32:28;;;;;;;3.33;1.05;;;17.00;1.00;;;;;;5012166;28;20050;-35
2023/04/01 11:35:16;;;;;;;3.22;1.00;;;17.00;1.00;;;;;;5013000;28;20084;-34
2023/04/01 11:37:53;;;;;;;4.28;1.52;;;17.00;1.00;;;;;;5011817;28;20056;-35
2023/04/01 11:41:08;;;;;;;2.63;0.80;;;17.00;1.00;;;;;;4990521;28;20516;-35
2023/04/01 11:44:14;;;;;;;5.90;2.22;;;17.00;1.00;;;;;;5012079;28;20042;-35
2023/04/01 11:46:57;;;;;;;3.55;0.70;;;17.00;1.00;;;;;;5011841;28;20037;-34
2023/04/01 11:50:02;;;;;;;3.47;1.38;;;17.00;1.00;;;;;;5011372;28;20486;-34
2023/04/01 11:52:51;;;;;;;6.50;1.63;;;17.00;1.00;;;;;;5011219;28;20061;-35
2023/04/01 11:55:44;;;;;;;5.35;1.20;;;17.00;1.00;;;;;;5012823;28;20404;-34
2023/04/01 11:58:45;;;;;;;4.65;1.10;;;17.00;1.00;;;;;;5012889;28;20563;-34
2023/04/01 12:01:30;;;;;;;3.85;0.70;;;17.00;1.00;;;;;;5012830;28;20037;-34
2023/04/01 12:04:11;;;;;;;3.08;0.93;;;17.00;1.00;;;;;;5011756;28;20116;-34
2023/04/01 12:06:54;;;;;;;4.88;1.10;;;17.00;1.00;;;;;;5012586;28;20038;-34
2023/04/01 12:09:45;;;;;;;4.13;0.85;;;17.00;1.00;;;;;;5012578;28;20038;-34
2023/04/01 12:12:44;;;;;;;3.72;1.27;;;17.00;1.00;;;;;;5012342;28;20107;-34
2023/04/01 12:15:26;;;;;;;;;;;17.00;1.00;;;;;;5012993;28;20038;-34
2023/04/01 12:18:21;;;;;;;5.63;1.67;;;17.00;1.00;;;;;;5012417;28;19925;-34
2023/04/01 12:21:11;;;;;;;4.85;1.75;;;17.00;1.00;;;;;;5012370;28;20452;-34
2023/04/01 12:23:56;;;;;;;4.72;0.93;;;17.00;1.00;;;;;;5011405;28;20053;-34
2023/04/01 12:26:43;;;;;;;6.03;1.38;;;17.00;1.00;;;;;;5012503;28;20124;-34
2023/04/01 12:29:14;;;;;;;4.63;1.65;;;17.00;1.00;;;;;;4982010;28;20049;-34
2023/04/01 12:31:58;;;;;;;5.78;1.80;;;17.00;1.00;;;;;;5012284;28;20042;-35
2023/04/01 12:34:24;;;;;;;4.28;0.93;;;17.00;1.00;;;;;;5011687;28;20045;-34
2023/04/01 12:36:54;;;;;;;4.22;1.35;;;17.00;1.00;;;;;;5012188;28;20046;-34
2023/04/01 12:40:06;;;;;;;4.18;2.03;;;17.00;1.00;;;;;;5012377;28;20041;-34
2023/04/01 12:42:53;;;;;;;10.05;2.00;;;17.00;1.00;;;;;;5010465;28;20564;-34
2023/04/01 12:45:31;;;;;;;3.40;1.00;;;17.00;1.00;;;;;;5012025;28;20041;-34
2023/04/01 12:48:16;;;;;;;5.30;1.27;;;17.00;1.00;;;;;;5012215;28;20049;-34
2023/04/01 12:51:07;;;;;;;5.15;1.60;;;17.00;1.00;;;;;;5012199;28;20310;-34
2023/04/01 12:54:26;;;;;;;4.38;1.25;;;17.00;1.00;;;;;;5009898;28;20104;-34
2023/04/01 12:57:30;;;;;;;4.75;1.00;;;17.00;1.00;;;;;;5011966;28;20413;-34
2023/04/01 13:00:11;;;;;;;7.05;2.20;;;16.90;1.00;;;;;;5014183;28;20080;-34
2023/04/01 13:02:57;;;;;;;6.40;1.58;;;16.90;1.00;;;;;;5015119;28;20042;-35
2023/04/01 13:05:32;;;;;;;8.20;1.25;;;16.90;1.00;;;;;;5016132;28;20400;-34
2023/04/01 13:08:23;;;;;;;4.95;1.40;;;16.90;1.00;;;;;;5016055;28;20185;-34
2023/04/01 13:11:02;;;;;;;6.93;1.15;;;16.90;1.00;;;;;;5016052;28;20479;-34
2023/04/01 13:14:18;;;;;;;5.38;1.15;;;16.90;1.00;;;;;;5013618;28;20501;-34
2023/04/01 13:17:06;;;;;;;4.70;1.40;;;16.90;1.00;;;;;;5015572;28;20054;-35
2023/04/01 13:19:53;;;;;;;5.65;1.10;;;16.90;1.00;;;;;;5015685;28;20076;-34
2023/04/01 13:22:50;;;;;;;4.28;0.88;;;16.90;1.00;;;;;;5015622;28;20057;-34
2023/04/01 13:25:37;;;;;;;2.53;0.85;;;16.90;1.00;;;;;;5015861;28;20045;-34
2023/04/01 13:28:21;;;;;;;7.05;1.60;;;16.90;1.00;;;;;;5015990;28;20061;-34
2023/04/01 13:30:54;;;;;;;7.13;1.45;;;16.90;1.00;;;;;;5015659;28;20042;-34
2023/04/01 13:33:42;;;;;;;7.82;1.75;;;16.90;1.00;;;;;;5014685;28;20049;-34
2023/04/01 13:36:24;;;;;;;4.63;1.65;;;16.90;1.00;;;;;;5015652;28;20392;-34
2023/04/01 13:39:03;;;;;;;5.63;1.48;;;16.90;1.00;;;;;;5015486;28;20478;-34
2023/04/01 13:41:32;;;;;;;7.13;1.13;;;16.90;1.00;;;;;;5015216;28;20053;-35
2023/04/01 13:44:06;;;;;;;5.13;1.45;;;16.90;1.00;;;;;;5014597;28;20073;-34
2023/04/01 13:47:05;;;;;;;4.85;1.85;;;16.90;1.00;;;;;;5015153;28;20046;-34
2023/04/01 13:49:47;;;;;;;8.38;1.48;;;16.90;1.00;;;;;;5015092;28;20042;-34
2023/04/01 13:52:32;;;;;;;7.60;1.38;;;16.90;1.00;;;;;;5014842;28;20046;-34
2023/04/01 13:55:02;;;;;;;3.70;0.95;;;16.90;1.00;;;;;;5014457;28;20441;-34
2023/04/01 13:57:37;;;;;;;6.85;1.38;;;16.90;1.00;;;;;;5014928;28;20126;-34
2023/04/01 14:00:41;;;;;;;7.35;1.40;;;16.90;1.00;;;;;;5014802;28;20081;-34
2023/04/01 14:03:50;;;;;;;2.78;1.15;;;16.90;1.00;;;;;;5012939;28;20167;-35
2023/04/01 14:06:26;;;;;;;5.63;1.85;;;16.90;1.00;;;;;;4997354;28;20046;-34
2023/04/01 14:09:05;;;;;;;7.85;2.65;;;16.80;1.00;;;;;;5013723;28;20179;-34
2023/04/01 14:11:59;;;;;;;26.30;11.00;;;16.90;1.00;;;;;;5013041;28;20077;-35
2023/04/01 14:14:50;;;;;;;73.00;35.22;;;16.90;1.00;;;;;;5013679;28;20046;-34